Time;durP1;ratioP1;P1;durP2;ratioP2;P2;SDS_P1;SDS_P2;PMS_P1;PMS_P2;Temp;Humidity;BMP_temperature;BMP_pressure;BME280_temperature;BME280_humidity;BME280_pressure;Samples;Min_cycle;Max_cycle;Signal;HPM_P1;HPM_P2
2022/01/19 00:02:03;;;;;;;2.10;1.23;;;;;;;;;;4859895;29;20549;-70
2022/01/19 00:04:34;;;;;;;3.42;2.00;;;;;;;;;;4873787;29;20442;-68
2022/01/19 00:07:04;;;;;;;3.78;1.55;;;;;;;;;;4884502;29;20064;-68
2022/01/19 00:09:35;;;;;;;3.30;1.38;;;;;;;;;;4909152;29;20056;-66
2022/01/19 00:12:06;;;;;;;3.20;1.50;;;;;;;;;;4933026;28;20558;-68
2022/01/19 00:14:36;;;;;;;4.57;1.80;;;;;;;;;;4932698;29;20074;-68
2022/01/19 00:17:07;;;;;;;2.72;1.42;;;;;;;;;;4928212;29;20055;-68
2022/01/19 00:19:37;;;;;;;4.13;1.65;;;;;;;;;;4936573;28;20051;-71
2022/01/19 00:22:09;;;;;;;3.67;1.63;;;;;;;;;;4970659;28;20059;-69
2022/01/19 00:24:41;;;;;;;2.80;1.42;;;;;;;;;;4971145;28;20055;-71
2022/01/19 00:27:11;;;;;;;4.72;1.60;;;;;;;;;;4971127;28;20073;-68
2022/01/19 00:29:42;;;;;;;3.25;1.52;;;;;;;;;;4967226;28;20058;-68
2022/01/19 00:32:12;;;;;;;2.50;1.33;;;;;;;;;;4974600;28;20054;-68
2022/01/19 00:34:42;;;;;;;4.68;1.52;;;;;;;;;;4958560;28;20545;-69
2022/01/19 00:37:13;;;;;;;3.70;2.58;;;;;;;;;;4990160;28;20057;-71
2022/01/19 00:39:44;;;;;;;3.83;1.60;;;;;;;;;;4972879;28;20446;-68
2022/01/19 00:42:14;;;;;;;5.10;1.80;;;;;;;;;;4992498;28;20054;-67
2022/01/19 00:44:45;;;;;;;3.58;1.63;;;;;;;;;;4993357;28;20458;-68
2022/01/19 00:47:16;;;;;;;5.82;1.55;;;;;;;;;;5004822;28;20050;-69
2022/01/19 00:49:48;;;;;;;7.03;1.77;;;;;;;;;;4996222;28;20066;-67
2022/01/19 00:52:18;;;;;;;2.47;1.27;;;;;;;;;;4977975;28;20099;-68
2022/01/19 00:54:48;;;;;;;6.95;1.50;;;;;;;;;;4967723;28;20058;-68
2022/01/19 00:57:19;;;;;;;3.92;1.45;;;;;;;;;;4969238;28;20065;-66
2022/01/19 00:59:51;;;;;;;3.80;1.48;;;;;;;;;;4950002;28;20070;-68
2022/01/19 01:02:22;;;;;;;2.83;1.50;;;;;;;;;;4954607;28;20054;-69
2022/01/19 01:04:52;;;;;;;3.53;1.35;;;;;;;;;;4969521;28;20050;-68
2022/01/19 01:07:22;;;;;;;2.70;1.60;;;;;;;;;;4970616;28;20059;-68
2022/01/19 01:09:54;;;;;;;3.65;1.55;;;;;;;;;;4952538;28;20427;-68
2022/01/19 01:12:32;;;;;;;4.78;1.17;;;;;;;;;;4951058;28;20066;-69
2022/01/19 01:20:36;;;;;;;4.35;1.33;;;;;;;;;;4926192;28;20114;-68
2022/01/19 01:23:08;;;;;;;;;;;;;;;;;;4930914;29;20055;-68
2022/01/19 01:25:39;;;;;;;5.82;1.60;;;;;;;;;;4905727;29;19930;-69
2022/01/19 01:28:09;;;;;;;5.25;1.52;;;;;;;;;;4903337;29;20693;-68
2022/01/19 01:30:40;;;;;;;5.38;1.50;;;;;;;;;;4895171;29;20064;-68
2022/01/19 01:33:11;;;;;;;5.55;1.63;;;;;;;;;;4894380;29;20057;-68
2022/01/19 01:35:42;;;;;;;8.23;1.60;;;;;;;;;;4895198;29;20056;-69
2022/01/19 01:38:12;;;;;;;4.78;1.52;;;;;;;;;;4860595;29;20053;-67
2022/01/19 01:41:05;;;;;;;5.28;1.65;;;;;;;;;;4857512;29;20065;-69
2022/01/19 01:43:36;;;;;;;2.58;1.40;;;;;;;;;;4826908;29;20061;-68
2022/01/19 01:46:22;;;;;;;6.80;1.85;;;;;;;;;;4857846;29;20525;-70
2022/01/19 01:48:53;;;;;;;4.85;2.10;;;;;;;;;;4821090;29;20073;-68
2022/01/19 01:54:12;;;;;;;8.40;1.58;;;;;;;;;;4876219;29;20068;-69
2022/01/19 01:56:42;;;;;;;5.20;1.80;;;;;;;;;;4875583;29;20045;-69
2022/01/19 01:59:13;;;;;;;6.50;1.88;;;;;;;;;;4860128;29;20060;-69
2022/01/19 02:01:52;;;;;;;3.95;1.48;;;;;;;;;;4875576;29;20057;-68
2022/01/19 02:04:25;;;;;;;2.90;1.80;;;;;;;;;;4866461;29;20057;-69
2022/01/19 02:09:40;;;;;;;5.07;1.75;;;;;;;;;;4893970;29;20063;-69
2022/01/19 02:23:36;;;;;;;3.25;1.70;;;;;;;;;;4925950;29;20060;-69
2022/01/19 02:26:14;;;;;;;4.68;2.20;;;;;;;;;;4913204;29;20052;-69
2022/01/19 02:29:14;;;;;;;8.55;2.03;;;;;;;;;;4914786;29;20059;-69
2022/01/19 02:51:12;;;;;;;7.88;2.05;;;;;;;;;;4930968;28;20520;-70
2022/01/19 02:53:43;;;;;;;5.65;2.08;;;;;;;;;;4950778;28;20507;-69
2022/01/19 02:56:22;;;;;;;7.15;1.92;;;;;;;;;;4918624;29;20059;-69
2022/01/19 02:59:02;;;;;;;6.00;1.90;;;;;;;;;;4934865;29;20051;-68
2022/01/19 03:09:48;;;;;;;5.25;2.20;;;;;;;;;;4938223;29;20052;-69
2022/01/19 03:12:18;;;;;;;8.70;2.30;;;;;;;;;;4912310;29;20048;-66
2022/01/19 03:14:51;;;;;;;9.82;2.08;;;;;;;;;;4912428;29;20052;-69
2022/01/19 03:17:21;;;;;;;3.95;1.92;;;;;;;;;;4889298;29;20069;-70
2022/01/19 03:19:51;;;;;;;6.97;2.35;;;;;;;;;;4889970;29;20512;-67
2022/01/19 03:22:28;;;;;;;5.25;1.90;;;;;;;;;;4875168;29;20053;-69
2022/01/19 03:24:58;;;;;;;5.72;2.03;;;;;;;;;;4861238;29;20052;-70
2022/01/19 03:27:28;;;;;;;4.03;1.83;;;;;;;;;;4874999;29;20421;-69
2022/01/19 03:29:58;;;;;;;5.45;2.17;;;;;;;;;;4859304;29;20059;-70
2022/01/19 03:32:29;;;;;;;2.80;1.60;;;;;;;;;;4892098;29;20063;-69
2022/01/19 03:35:01;;;;;;;5.07;2.40;;;;;;;;;;4862585;29;20101;-69
2022/01/19 03:37:31;;;;;;;;;;;;;;;;;;4893813;29;20549;-70
2022/01/19 03:40:03;;;;;;;4.40;1.80;;;;;;;;;;4893161;29;19939;-67
2022/01/19 03:42:34;;;;;;;;;;;;;;;;;;4874981;29;20053;-69
2022/01/19 03:45:06;;;;;;;6.10;2.10;;;;;;;;;;4864562;29;19923;-70
2022/01/19 03:48:06;;;;;;;4.32;1.88;;;;;;;;;;4896953;29;20056;-69
2022/01/19 03:50:31;;;;;;;5.53;2.00;;;;;;;;;;4897227;29;20055;-69
2022/01/19 03:53:01;;;;;;;5.15;2.13;;;;;;;;;;4874763;29;20057;-69
2022/01/19 03:55:34;;;;;;;8.65;2.30;;;;;;;;;;4890617;29;20054;-69
2022/01/19 03:58:05;;;;;;;5.43;2.05;;;;;;;;;;4896567;29;20079;-69
2022/01/19 04:00:41;;;;;;;6.32;1.77;;;;;;;;;;4934477;29;20050;-70
2022/01/19 04:03:17;;;;;;;3.60;1.98;;;;;;;;;;4948537;28;20059;-70
2022/01/19 04:06:03;;;;;;;4.22;1.88;;;;;;;;;;4954228;28;20066;-70
2022/01/19 04:08:34;;;;;;;6.75;1.90;;;;;;;;;;4937376;28;20055;-70
2022/01/19 04:11:04;;;;;;;4.57;1.88;;;;;;;;;;4970906;28;20059;-70
2022/01/19 04:16:26;;;;;;;5.95;2.15;;;;;;;;;;4918518;29;20538;-70
2022/01/19 04:19:18;;;;;;;7.13;2.53;;;;;;;;;;4896646;29;20064;-70
2022/01/19 04:21:53;;;;;;;6.72;2.20;;;;;;;;;;4933993;29;20052;-71
2022/01/19 04:24:25;;;;;;;6.07;2.10;;;;;;;;;;4905666;28;20060;-70
2022/01/19 04:30:09;;;;;;;6.53;2.05;;;;;;;;;;4953231;28;20051;-69
2022/01/19 04:35:44;;;;;;;5.30;1.92;;;;;;;;;;4961145;28;20529;-70
2022/01/19 04:39:16;;;;;;;7.90;1.90;;;;;;;;;;4948916;28;20451;-69
2022/01/19 05:04:37;;;;;;;3.58;2.10;;;;;;;;;;4883562;29;20049;-70
2022/01/19 05:07:31;;;;;;;6.65;1.88;;;;;;;;;;4895379;29;20067;-71
2022/01/19 05:13:24;;;;;;;10.30;2.63;;;;;;;;;;4861317;29;20053;-69
2022/01/19 05:15:44;;;;;;;3.92;2.00;;;;;;;;;;4845777;29;20053;-70
2022/01/19 05:18:19;;;;;;;3.83;1.73;;;;;;;;;;4876383;29;20057;-69
2022/01/19 05:20:51;;;;;;;3.42;1.73;;;;;;;;;;4861230;29;20053;-68
2022/01/19 05:23:41;;;;;;;8.73;2.22;;;;;;;;;;4850947;29;20052;-70
2022/01/19 05:26:12;;;;;;;4.97;2.17;;;;;;;;;;4857746;29;20090;-69
2022/01/19 05:28:43;;;;;;;5.68;1.95;;;;;;;;;;4821020;29;20050;-68
2022/01/19 05:31:14;;;;;;;4.30;1.65;;;;;;;;;;4783193;29;20442;-69
2022/01/19 05:33:45;;;;;;;9.60;1.90;;;;;;;;;;4761080;30;20059;-70
2022/01/19 05:36:15;;;;;;;5.18;2.00;;;;;;;;;;4794623;29;20062;-70
2022/01/19 05:39:18;;;;;;;10.68;2.30;;;;;;;;;;4839538;29;20069;-68
2022/01/19 05:42:14;;;;;;;6.20;2.15;;;;;;;;;;4802919;29;20058;-70
2022/01/19 05:44:48;;;;;;;9.07;2.30;;;;;;;;;;4839217;29;20054;-68
2022/01/19 05:47:21;;;;;;;11.43;2.42;;;;;;;;;;4795714;29;20054;-69
2022/01/19 05:49:51;;;;;;;9.85;2.17;;;;;;;;;;4799518;29;20532;-69
2022/01/19 05:52:23;;;;;;;6.53;2.20;;;;;;;;;;4784541;30;20559;-66
2022/01/19 05:54:56;;;;;;;5.88;2.13;;;;;;;;;;4786701;29;20070;-69
2022/01/19 05:57:27;;;;;;;3.72;1.90;;;;;;;;;;4820933;29;20063;-68
2022/01/19 05:59:57;;;;;;;5.57;1.90;;;;;;;;;;4817359;29;20055;-68
2022/01/19 06:02:27;;;;;;;8.00;1.98;;;;;;;;;;4802161;29;20064;-69
2022/01/19 06:04:58;;;;;;;6.47;2.25;;;;;;;;;;4802595;29;20058;-69
2022/01/19 06:07:49;;;;;;;4.93;2.15;;;;;;;;;;4826282;29;20062;-69
2022/01/19 06:10:44;;;;;;;6.13;2.03;;;;;;;;;;4838155;29;20065;-69
2022/01/19 06:13:18;;;;;;;6.13;2.22;;;;;;;;;;4834883;29;20551;-69
2022/01/19 06:15:50;;;;;;;6.50;1.95;;;;;;;;;;4809950;29;20054;-69
2022/01/19 06:18:21;;;;;;;7.78;2.35;;;;;;;;;;4817351;29;20511;-68
2022/01/19 06:20:52;;;;;;;9.10;2.30;;;;;;;;;;4820472;29;20088;-69
2022/01/19 06:23:28;;;;;;;8.77;2.28;;;;;;;;;;4785488;29;20075;-69
2022/01/19 06:26:10;;;;;;;9.63;2.47;;;;;;;;;;4836326;29;20064;-67
2022/01/19 06:28:41;;;;;;;11.52;2.38;;;;;;;;;;4856773;29;20062;-68
2022/01/19 06:31:11;;;;;;;10.73;2.30;;;;;;;;;;4856788;29;20068;-69
2022/01/19 06:33:42;;;;;;;4.88;2.20;;;;;;;;;;4855939;29;20054;-68
2022/01/19 06:36:14;;;;;;;6.00;2.22;;;;;;;;;;4808155;29;20046;-69
2022/01/19 06:39:13;;;;;;;8.10;3.00;;;;;;;;;;4893946;29;20048;-68
2022/01/19 06:41:50;;;;;;;7.78;2.28;;;;;;;;;;4864496;29;20045;-68
2022/01/19 06:44:21;;;;;;;10.43;2.75;;;;;;;;;;4859804;29;20060;-69
2022/01/19 06:46:52;;;;;;;5.15;2.00;;;;;;;;;;4859379;29;20505;-69
2022/01/19 06:49:23;;;;;;;7.50;2.10;;;;;;;;;;4856698;29;20049;-69
2022/01/19 06:51:53;;;;;;;10.40;2.33;;;;;;;;;;4874927;29;20064;-68
2022/01/19 06:54:24;;;;;;;9.85;2.78;;;;;;;;;;4875125;29;20057;-69
2022/01/19 06:56:54;;;;;;;9.50;2.90;;;;;;;;;;4893391;29;20060;-69
2022/01/19 06:59:38;;;;;;;6.10;2.88;;;;;;;;;;4911428;29;20059;-69
2022/01/19 07:02:21;;;;;;;6.88;2.75;;;;;;;;;;4912716;29;20052;-69
2022/01/19 07:05:06;;;;;;;7.75;2.47;;;;;;;;;;4912592;29;20071;-70
2022/01/19 07:07:43;;;;;;;5.03;2.60;;;;;;;;;;4912417;29;20048;-69
2022/01/19 07:10:15;;;;;;;13.30;3.15;;;;;;;;;;4931061;29;20059;-67
2022/01/19 07:12:45;;;;;;;7.18;2.67;;;;;;;;;;4917368;29;20060;-69
2022/01/19 07:15:16;;;;;;;5.95;2.22;;;;;;;;;;4917395;29;20540;-73
2022/01/19 07:17:47;;;;;;;7.78;2.80;;;;;;;;;;4931362;29;20062;-70
2022/01/19 07:20:18;;;;;;;10.98;2.92;;;;;;;;;;4914838;29;20055;-69
2022/01/19 07:22:48;;;;;;;9.55;2.95;;;;;;;;;;4935348;29;20083;-70
2022/01/19 07:25:18;;;;;;;4.72;2.40;;;;;;;;;;4954097;29;20062;-71
2022/01/19 07:27:49;;;;;;;5.72;2.55;;;;;;;;;;4961605;28;20043;-67
2022/01/19 07:30:20;;;;;;;6.78;2.60;;;;;;;;;;4967771;28;20490;-68
2022/01/19 07:32:51;;;;;;;6.75;2.72;;;;;;;;;;4926885;28;20057;-68
2022/01/19 07:35:22;;;;;;;6.85;2.47;;;;;;;;;;4973730;28;20411;-67
2022/01/19 07:37:53;;;;;;;10.00;3.53;;;;;;;;;;4921189;29;20063;-68
2022/01/19 07:40:23;;;;;;;10.25;2.85;;;;;;;;;;4934636;29;20055;-68
2022/01/19 07:42:55;;;;;;;8.63;3.17;;;;;;;;;;4908323;29;20064;-67
2022/01/19 07:45:43;;;;;;;6.25;2.72;;;;;;;;;;4891934;29;20057;-68
2022/01/19 07:48:33;;;;;;;8.38;3.17;;;;;;;;;;4907891;29;20548;-68
2022/01/19 07:51:27;;;;;;;7.57;3.42;;;;;;;;;;4916532;29;20052;-68
2022/01/19 07:54:10;;;;;;;7.80;3.33;;;;;;;;;;4882600;29;20060;-68
2022/01/19 07:57:06;;;;;;;6.90;3.53;;;;;;;;;;4896460;29;20053;-68
2022/01/19 08:00:00;;;;;;;11.00;3.03;;;;;;;;;;4878575;29;20064;-68
2022/01/19 08:02:44;;;;;;;8.90;3.55;;;;;;;;;;4878334;29;20072;-68
2022/01/19 08:05:19;;;;;;;12.48;4.43;;;;;;;;;;4878019;29;20057;-67
2022/01/19 08:07:52;;;;;;;7.63;3.40;;;;;;;;;;4877932;29;20045;-67
2022/01/19 08:10:23;;;;;;;9.52;4.03;;;;;;;;;;4878153;29;20074;-68
2022/01/19 08:12:53;;;;;;;14.07;4.10;;;;;;;;;;4896444;29;20068;-66
2022/01/19 08:15:24;;;;;;;14.57;4.55;;;;;;;;;;4880669;29;20430;-66
2022/01/19 08:17:56;;;;;;;10.60;3.45;;;;;;;;;;4906377;29;20540;-67
2022/01/19 08:20:26;;;;;;;9.35;4.22;;;;;;;;;;4905019;29;20059;-67
2022/01/19 08:22:57;;;;;;;8.85;3.60;;;;;;;;;;4934098;29;20051;-67
2022/01/19 08:25:38;;;;;;;8.55;4.05;;;;;;;;;;4933993;29;20055;-67
2022/01/19 08:28:08;;;;;;;15.50;4.85;;;;;;;;;;4876019;29;20626;-68
2022/01/19 08:30:38;;;;;;;8.10;4.05;;;;;;;;;;4920143;28;20051;-68
2022/01/19 08:33:10;;;;;;;6.97;4.13;;;;;;;;;;4896052;29;20060;-67
2022/01/19 08:35:54;;;;;;;9.35;3.65;;;;;;;;;;4914680;29;20056;-67
2022/01/19 08:38:43;;;;;;;10.55;3.97;;;;;;;;;;4864301;29;20065;-68
2022/01/19 08:41:25;;;;;;;11.57;3.75;;;;;;;;;;4876926;29;20052;-68
2022/01/19 08:43:57;;;;;;;13.90;4.00;;;;;;;;;;4880381;29;20056;-68
2022/01/19 08:46:27;;;;;;;10.63;3.80;;;;;;;;;;4860856;29;20053;-68
2022/01/19 08:49:13;;;;;;;12.60;3.60;;;;;;;;;;4858859;29;20057;-68
2022/01/19 08:52:00;;;;;;;10.18;3.80;;;;;;;;;;4815845;29;20063;-68
2022/01/19 08:54:36;;;;;;;9.30;3.67;;;;;;;;;;4800772;29;20400;-67
2022/01/19 08:57:09;;;;;;;11.60;3.70;;;;;;;;;;4803543;29;20096;-68
2022/01/19 08:59:39;;;;;;;7.68;3.75;;;;;;;;;;4801918;29;20055;-68
2022/01/19 09:02:10;;;;;;;8.15;3.42;;;;;;;;;;4785639;30;20067;-67
2022/01/19 09:04:41;;;;;;;12.23;3.95;;;;;;;;;;4785654;30;20071;-68
2022/01/19 09:07:12;;;;;;;9.02;3.53;;;;;;;;;;4785553;29;20056;-68
2022/01/19 09:09:42;;;;;;;8.65;3.65;;;;;;;;;;4786687;29;20531;-68
2022/01/19 09:12:13;;;;;;;9.88;4.15;;;;;;;;;;4821480;29;20056;-68
2022/01/19 09:14:43;;;;;;;8.15;3.80;;;;;;;;;;4875357;29;20520;-68
2022/01/19 09:17:13;;;;;;;6.38;4.05;;;;;;;;;;4873413;29;20050;-69
2022/01/19 09:19:43;;;;;;;8.90;4.32;;;;;;;;;;4875502;29;20049;-68
2022/01/19 09:22:15;;;;;;;11.07;4.07;;;;;;;;;;4887677;29;20063;-68
2022/01/19 09:24:45;;;;;;;9.43;3.35;;;;;;;;;;4904626;29;20060;-69
2022/01/19 09:27:18;;;;;;;11.85;3.75;;;;;;;;;;4906142;29;20438;-68
2022/01/19 09:29:49;;;;;;;9.75;4.15;;;;;;;;;;4947300;28;20054;-68
2022/01/19 09:32:23;;;;;;;10.75;3.92;;;;;;;;;;4979063;28;20082;-68
2022/01/19 09:34:57;;;;;;;9.20;3.83;;;;;;;;;;5013410;28;20049;-68
2022/01/19 09:37:27;;;;;;;10.15;3.83;;;;;;;;;;5023983;28;20045;-69
2022/01/19 09:40:18;;;;;;;8.90;3.75;;;;;;;;;;5038059;28;20048;-68
2022/01/19 09:42:50;;;;;;;9.13;3.92;;;;;;;;;;5039593;28;20072;-68
2022/01/19 09:45:20;;;;;;;8.85;4.30;;;;;;;;;;5038004;28;20277;-68
2022/01/19 09:47:50;;;;;;;9.63;4.20;;;;;;;;;;4949641;28;20046;-68
2022/01/19 09:50:21;;;;;;;12.88;4.25;;;;;;;;;;5030141;28;20054;-69
2022/01/19 09:52:52;;;;;;;9.10;4.97;;;;;;;;;;4997171;28;20052;-69
2022/01/19 09:55:22;;;;;;;9.88;4.15;;;;;;;;;;4990350;28;20054;-68
2022/01/19 09:57:53;;;;;;;7.70;3.42;;;;;;;;;;4990483;28;20076;-69
2022/01/19 10:00:24;;;;;;;10.85;2.75;;;;;;;;;;4990247;28;20636;-69
2022/01/19 10:03:18;;;;;;;7.30;3.05;;;;;;;;;;4990438;28;20050;-69
2022/01/19 10:06:08;;;;;;;7.03;2.55;;;;;;;;;;4990190;28;20064;-69
2022/01/19 10:08:45;;;;;;;13.90;2.92;;;;;;;;;;4942955;28;20057;-70
2022/01/19 10:16:58;;;;;;;12.20;2.95;;;;;;;;;;4990701;28;20050;-70
2022/01/19 10:17:09;;;;;;;12.75;2.63;;;;;;;;;;4990270;28;20057;-69
2022/01/19 10:19:45;;;;;;;12.18;3.10;;;;;;;;;;4989892;28;20054;-69
2022/01/19 10:22:23;;;;;;;12.68;3.22;;;;;;;;;;4990616;28;20050;-70
2022/01/19 10:25:04;;;;;;;15.13;3.33;;;;;;;;;;4970705;28;20054;-70
2022/01/19 10:27:39;;;;;;;19.02;2.97;;;;;;;;;;4954017;28;20054;-69
2022/01/19 10:30:10;;;;;;;29.40;4.13;;;;;;;;;;4970485;28;20059;-70
2022/01/19 10:33:00;;;;;;;30.80;4.88;;;;;;;;;;4990138;28;20060;-70
2022/01/19 10:35:36;;;;;;;35.90;5.13;;;;;;;;;;5009388;28;20494;-68
2022/01/19 10:38:26;;;;;;;38.88;5.15;;;;;;;;;;4993309;28;20061;-69
2022/01/19 10:41:09;;;;;;;25.35;4.55;;;;;;;;;;4977030;28;20057;-68
2022/01/19 10:43:42;;;;;;;28.45;3.80;;;;;;;;;;4993338;28;20054;-71
2022/01/19 10:46:16;;;;;;;14.65;2.83;;;;;;;;;;5009490;28;20090;-69
2022/01/19 10:48:46;;;;;;;7.28;2.00;;;;;;;;;;4992748;28;20050;-72
2022/01/19 10:51:20;;;;;;;8.05;3.90;;;;;;;;;;5009440;28;20093;-70
2022/01/19 10:54:19;;;;;;;7.72;1.88;;;;;;;;;;4970046;28;20050;-71
2022/01/19 10:56:54;;;;;;;4.38;1.88;;;;;;;;;;4970584;28;20066;-72
2022/01/19 10:59:30;;;;;;;7.90;2.60;;;;;;;;;;4950690;28;20056;-73
2022/01/19 11:02:03;;;;;;;3.90;1.88;;;;;;;;;;4935332;28;20059;-73
2022/01/19 11:04:42;;;;;;;7.05;2.10;;;;;;;;;;4955177;28;20051;-72
2022/01/19 11:07:22;;;;;;;7.10;2.33;;;;;;;;;;4953929;28;20051;-72
2022/01/19 11:10:10;;;;;;;4.97;2.13;;;;;;;;;;4953813;28;20062;-71
2022/01/19 11:12:47;;;;;;;4.75;2.42;;;;;;;;;;4969960;28;20059;-72
2022/01/19 11:15:19;;;;;;;4.72;2.28;;;;;;;;;;4970656;28;20480;-66
2022/01/19 11:17:50;;;;;;;4.13;2.08;;;;;;;;;;4953671;28;20133;-71
2022/01/19 11:20:24;;;;;;;7.32;2.40;;;;;;;;;;4970104;28;20042;-71
2022/01/19 11:23:06;;;;;;;8.65;1.95;;;;;;;;;;4969055;28;20059;-71
2022/01/19 11:25:51;;;;;;;7.25;1.88;;;;;;;;;;4969924;28;20051;-72
2022/01/19 11:28:38;;;;;;;4.75;2.50;;;;;;;;;;4968313;28;20066;-74
2022/01/19 11:31:19;;;;;;;5.32;2.05;;;;;;;;;;4946277;28;20050;-73
2022/01/19 11:33:58;;;;;;;5.32;1.85;;;;;;;;;;4949049;29;20059;-71
2022/01/19 11:36:39;;;;;;;3.80;2.13;;;;;;;;;;4959624;28;20069;-73
2022/01/19 11:39:23;;;;;;;4.93;2.25;;;;;;;;;;4961342;28;20061;-70
2022/01/19 11:41:55;;;;;;;4.78;1.92;;;;;;;;;;4975656;28;20549;-72
2022/01/19 11:44:37;;;;;;;4.78;2.25;;;;;;;;;;5003172;28;20054;-69
2022/01/19 11:47:13;;;;;;;4.72;2.05;;;;;;;;;;5019369;28;20513;-68
2022/01/19 11:49:46;;;;;;;6.68;2.30;;;;;;;;;;5018575;28;20065;-66
2022/01/19 11:52:19;;;;;;;5.63;2.10;;;;;;;;;;5028598;28;20064;-72
2022/01/19 11:54:52;;;;;;;10.25;2.00;;;;;;;;;;4992245;28;20049;-67
2022/01/19 11:57:29;;;;;;;5.72;1.75;;;;;;;;;;4973303;28;20051;-68
2022/01/19 12:00:13;;;;;;;3.15;2.08;;;;;;;;;;4989011;28;20062;-69
2022/01/19 12:02:47;;;;;;;6.57;2.38;;;;;;;;;;4989072;28;20051;-74
2022/01/19 12:05:40;;;;;;;3.70;1.42;;;;;;;;;;4991260;28;20056;-67
2022/01/19 12:08:29;;;;;;;3.08;2.30;;;;;;;;;;4992759;28;20054;-70
2022/01/19 12:11:10;;;;;;;4.28;1.92;;;;;;;;;;4992798;28;20225;-68
2022/01/19 12:19:14;;;;;;;3.85;1.60;;;;;;;;;;4992676;28;20058;-76
2022/01/19 12:22:00;;;;;;;4.30;1.55;;;;;;;;;;4944218;28;20054;-69
2022/01/19 12:24:47;;;;;;;4.97;1.42;;;;;;;;;;4944339;28;20050;-67
2022/01/19 12:27:20;;;;;;;2.65;1.55;;;;;;;;;;4992433;28;20046;-74
2022/01/19 12:30:08;;;;;;;6.00;1.70;;;;;;;;;;4944395;28;20556;-68
2022/01/19 12:32:40;;;;;;;2.65;1.42;;;;;;;;;;4960638;28;20054;-73
2022/01/19 12:35:33;;;;;;;3.08;1.23;;;;;;;;;;5025190;28;20528;-73
2022/01/19 12:38:09;;;;;;;2.10;1.38;;;;;;;;;;5038119;28;20052;-75
2022/01/19 12:40:42;;;;;;;2.25;1.35;;;;;;;;;;5050682;28;20045;-67
2022/01/19 12:43:29;;;;;;;6.63;1.52;;;;;;;;;;5043654;28;20072;-76
2022/01/19 12:46:02;;;;;;;4.53;1.83;;;;;;;;;;5032551;28;20072;-71
2022/01/19 12:48:39;;;;;;;3.65;1.75;;;;;;;;;;5032330;28;20053;-74
2022/01/19 12:51:46;;;;;;;5.28;1.60;;;;;;;;;;5048614;28;20039;-75
2022/01/19 12:54:29;;;;;;;3.88;1.70;;;;;;;;;;5035190;28;20046;-71
2022/01/19 12:57:05;;;;;;;2.67;1.33;;;;;;;;;;4997432;28;20053;-75
2022/01/19 12:59:38;;;;;;;5.85;4.00;;;;;;;;;;5033276;28;20113;-72
2022/01/19 13:02:08;;;;;;;5.65;3.95;;;;;;;;;;5009986;28;20418;-75
2022/01/19 13:04:41;;;;;;;4.53;1.35;;;;;;;;;;5010039;28;20058;-70
2022/01/19 13:07:27;;;;;;;3.95;1.58;;;;;;;;;;5010664;28;20545;-71
2022/01/19 13:13:11;;;;;;;2.63;1.40;;;;;;;;;;5010325;28;20052;-69
2022/01/19 13:15:52;;;;;;;3.72;1.40;;;;;;;;;;5019259;28;20544;-75
2022/01/19 13:18:37;;;;;;;2.47;1.50;;;;;;;;;;4996522;28;20056;-73
2022/01/19 13:21:11;;;;;;;2.20;1.50;;;;;;;;;;5030152;28;20049;-73
2022/01/19 13:23:54;;;;;;;3.45;1.50;;;;;;;;;;5029715;28;20156;-71
2022/01/19 13:26:36;;;;;;;2.33;1.35;;;;;;;;;;5029789;28;20061;-67
2022/01/19 13:29:23;;;;;;;3.58;1.40;;;;;;;;;;5029921;28;20050;-75
2022/01/19 13:32:12;;;;;;;2.33;1.25;;;;;;;;;;4997072;28;20057;-73
2022/01/19 13:34:50;;;;;;;4.18;1.40;;;;;;;;;;5029404;28;20053;-69
2022/01/19 13:37:24;;;;;;;5.50;1.50;;;;;;;;;;4970437;28;20051;-70
2022/01/19 13:40:05;;;;;;;5.07;1.20;;;;;;;;;;4991349;28;20065;-74
2022/01/19 13:42:47;;;;;;;2.33;1.35;;;;;;;;;;4929138;28;20038;-74
2022/01/19 13:45:35;;;;;;;4.47;1.10;;;;;;;;;;4961123;28;20058;-74
2022/01/19 13:51:04;;;;;;;2.20;1.25;;;;;;;;;;4951196;28;20108;-70
2022/01/19 13:53:40;;;;;;;5.30;1.00;;;;;;;;;;4896363;29;20626;-73
2022/01/19 13:56:25;;;;;;;2.40;1.23;;;;;;;;;;4912565;29;20060;-69
2022/01/19 13:59:08;;;;;;;2.03;1.23;;;;;;;;;;4897583;29;20055;-73
2022/01/19 14:02:08;;;;;;;3.90;1.42;;;;;;;;;;4912505;29;20060;-70
2022/01/19 14:04:36;;;;;;;3.72;1.10;;;;;;;;;;4893007;29;20535;-74
2022/01/19 14:07:14;;;;;;;3.03;1.25;;;;;;;;;;4894472;29;20544;-76
2022/01/19 14:09:46;;;;;;;2.90;1.10;;;;;;;;;;4862937;29;20430;-73
2022/01/19 14:12:19;;;;;;;;;;;;;;;;;;4860394;29;20060;-67
2022/01/19 14:14:50;;;;;;;1.67;1.25;;;;;;;;;;4852023;29;20499;-70
2022/01/19 14:17:41;;;;;;;2.33;1.40;;;;;;;;;;4856430;29;20049;-72
2022/01/19 14:20:14;;;;;;;;;;;;;;;;;;4875161;29;20060;-72
2022/01/19 14:22:53;;;;;;;4.25;1.20;;;;;;;;;;4875662;29;19930;-75
2022/01/19 14:25:24;;;;;;;4.15;1.25;;;;;;;;;;4846470;29;20061;-69
2022/01/19 14:27:58;;;;;;;2.20;1.25;;;;;;;;;;4856789;29;20062;-69
2022/01/19 14:30:32;;;;;;;3.72;1.80;;;;;;;;;;4888410;28;20050;-74
2022/01/19 14:33:09;;;;;;;3.65;1.23;;;;;;;;;;4970774;28;20065;-74
2022/01/19 14:35:45;;;;;;;2.85;1.23;;;;;;;;;;4970688;28;20062;-70
2022/01/19 14:42:09;;;;;;;3.42;1.23;;;;;;;;;;4987748;28;20449;-74
2022/01/19 14:44:43;;;;;;;5.32;1.17;;;;;;;;;;5009571;28;20085;-69
2022/01/19 14:47:35;;;;;;;3.10;1.15;;;;;;;;;;4984480;28;20417;-70
2022/01/19 14:50:25;;;;;;;2.70;1.60;;;;;;;;;;4994529;28;20057;-69
2022/01/19 14:52:56;;;;;;;3.63;1.45;;;;;;;;;;5009184;28;20038;-66
2022/01/19 14:55:30;;;;;;;2.72;1.00;;;;;;;;;;5009450;28;20430;-69
2022/01/19 14:58:03;;;;;;;3.10;1.30;;;;;;;;;;5021890;28;20064;-66
2022/01/19 15:00:36;;;;;;;2.15;1.20;;;;;;;;;;4976653;28;20558;-63
2022/01/19 15:03:07;;;;;;;1.30;1.13;;;;;;;;;;4989233;28;20042;-65
2022/01/19 15:05:39;;;;;;;6.50;1.23;;;;;;;;;;4957700;28;20065;-64
2022/01/19 15:08:10;;;;;;;3.75;1.33;;;;;;;;;;4989352;28;20046;-69
2022/01/19 15:10:41;;;;;;;4.82;1.42;;;;;;;;;;4941457;28;20065;-65
2022/01/19 15:13:11;;;;;;;3.47;1.35;;;;;;;;;;4989174;28;20061;-64
2022/01/19 15:15:41;;;;;;;2.60;1.20;;;;;;;;;;4989297;28;20057;-66
2022/01/19 15:18:13;;;;;;;3.08;1.35;;;;;;;;;;4989442;28;20050;-68
2022/01/19 15:20:43;;;;;;;3.75;1.33;;;;;;;;;;4958498;28;20050;-65
2022/01/19 15:23:13;;;;;;;3.75;1.13;;;;;;;;;;4989540;28;20042;-65
2022/01/19 15:25:43;;;;;;;2.33;1.13;;;;;;;;;;4989692;28;20054;-64
2022/01/19 15:28:15;;;;;;;3.33;1.42;;;;;;;;;;4989358;28;20067;-63
2022/01/19 15:30:47;;;;;;;2.72;1.40;;;;;;;;;;4989391;28;20066;-65
2022/01/19 15:33:18;;;;;;;2.00;1.45;;;;;;;;;;4988954;28;20069;-66
2022/01/19 15:35:49;;;;;;;2.78;1.20;;;;;;;;;;4989416;28;20050;-64
2022/01/19 15:38:20;;;;;;;2.30;1.02;;;;;;;;;;4964599;28;20046;-69
2022/01/19 15:40:50;;;;;;;4.38;1.40;;;;;;;;;;5002070;28;20057;-63
2022/01/19 15:43:20;;;;;;;2.53;1.70;;;;;;;;;;5012706;28;20465;-66
2022/01/19 15:45:51;;;;;;;3.25;1.02;;;;;;;;;;5012905;28;20053;-69
2022/01/19 15:48:22;;;;;;;1.80;0.90;;;;;;;;;;5012746;28;20069;-65
2022/01/19 15:50:55;;;;;;;1.48;1.15;;;;;;;;;;4996194;28;20042;-67
2022/01/19 15:53:26;;;;;;;2.97;1.17;;;;;;;;;;5002047;28;20077;-63
2022/01/19 15:55:59;;;;;;;4.40;1.13;;;;;;;;;;4993080;28;20062;-63
2022/01/19 15:58:30;;;;;;;4.90;1.23;;;;;;;;;;4992740;28;20506;-63
2022/01/19 16:01:00;;;;;;;2.13;1.33;;;;;;;;;;4953916;29;20051;-62
2022/01/19 16:03:31;;;;;;;3.88;1.45;;;;;;;;;;4953868;29;20399;-62
2022/01/19 16:06:01;;;;;;;2.75;1.35;;;;;;;;;;4934600;29;20658;-62
2022/01/19 16:08:31;;;;;;;2.78;1.23;;;;;;;;;;4934737;29;20067;-65
2022/01/19 16:11:03;;;;;;;2.05;0.93;;;;;;;;;;4934891;29;20500;-66
2022/01/19 16:13:33;;;;;;;2.58;1.42;;;;;;;;;;4934958;29;20072;-63
2022/01/19 16:16:03;;;;;;;3.92;1.40;;;;;;;;;;4966105;28;20550;-63
2022/01/19 16:18:34;;;;;;;2.55;1.25;;;;;;;;;;4976373;28;20082;-63
2022/01/19 16:21:23;;;;;;;;;;;;;;;;;;4993049;28;20054;-66
2022/01/19 16:26:43;;;;;;;4.93;1.27;;;;;;;;;;4992513;28;20058;-69
2022/01/19 16:29:15;;;;;;;6.30;1.42;;;;;;;;;;4992287;28;20053;-65
2022/01/19 16:31:46;;;;;;;3.13;1.42;;;;;;;;;;4992380;28;20430;-74
2022/01/19 16:34:18;;;;;;;3.95;1.00;;;;;;;;;;4992124;28;20558;-68
2022/01/19 16:36:51;;;;;;;1.42;1.17;;;;;;;;;;4967770;28;20565;-67
2022/01/19 16:39:22;;;;;;;1.60;1.05;;;;;;;;;;5029511;28;20061;-67
2022/01/19 16:42:02;;;;;;;3.03;1.25;;;;;;;;;;4999187;28;20422;-66
2022/01/19 16:44:37;;;;;;;2.60;1.02;;;;;;;;;;5016423;28;20065;-66
2022/01/19 16:47:11;;;;;;;2.28;1.00;;;;;;;;;;5032774;28;20038;-63
2022/01/19 16:49:46;;;;;;;1.48;1.20;;;;;;;;;;5033744;28;20453;-64
2022/01/19 16:52:16;;;;;;;3.42;1.33;;;;;;;;;;5033320;28;20394;-64
2022/01/19 16:54:48;;;;;;;3.25;1.30;;;;;;;;;;5030945;28;20222;-67
2022/01/19 16:57:18;;;;;;;3.10;1.17;;;;;;;;;;5031393;28;20049;-63
2022/01/19 16:59:50;;;;;;;3.08;1.30;;;;;;;;;;4975157;28;20046;-63
2022/01/19 17:02:20;;;;;;;3.28;1.45;;;;;;;;;;4991707;28;20054;-63
2022/01/19 17:04:51;;;;;;;2.97;1.40;;;;;;;;;;4975737;28;20058;-63
2022/01/19 17:07:21;;;;;;;7.10;1.40;;;;;;;;;;4991434;28;20474;-63
2022/01/19 17:09:51;;;;;;;1.60;0.90;;;;;;;;;;4952695;28;20543;-63
2022/01/19 17:12:27;;;;;;;3.10;1.13;;;;;;;;;;4936719;28;20051;-63
2022/01/19 17:15:13;;;;;;;2.55;1.30;;;;;;;;;;4952785;28;20416;-63
2022/01/19 17:17:51;;;;;;;4.20;1.13;;;;;;;;;;4952728;28;20503;-63
2022/01/19 17:20:42;;;;;;;3.38;1.33;;;;;;;;;;4952683;28;20055;-65